Archival Weather

Snohomish County (Paine Fld)

Everett, Washington (KPAE)

Report from: Friday, November 10, 2023 6:28 AM PST
Current time: Sunday, June 16, 2024 11:18 PM PDT

Current weather – Weather history – Daily summaries
Weather forecast

Temperature7.8°C (46.0°F)
Wind chill5.5°C (41.9°F)
Dew point5.6°C (42.1°F)
Winds 7 kts (3.6 m/s, 8.1 mph) South-Southeast (150°)
Visibility10 mi. (16.1 km)
Clouds Ceiling: Broken clouds 1,100 ft. (335 m)
Overcast 1,800 ft. (549 m)
Altimeter30.11 in.Hg (1020 mB)
Relative humidity86 %
Density altitude-950 ft. (-289 m)
Remarks Fully automated report
Automated weather observing station with precipitation discriminator
Ceiling
Flight conditions Marginal Visual Meteorological Conditions
Raw dataKPAE 101428Z AUTO 15007KT 10SM BKN011 OVC018 08/06 A3011 RMK AO2 CIG 008V016 T00780056
An error has occurred. This application may no longer respond until reloaded. Reload 🗙